Página principal
METAR-TAF:

METAR-TAF

Aeroportos :

Alice Springs, Austrália

latitude: 23-48S, longitude: 133-53E, altura: 545 m

Observação actual do tempo

O boletim foi feito há 47 minutos, às 16:00 UTC
Vento 6 kt de es-nordeste
Temperatura 14°C
Humidade 26%
Pressão 1022 hPa
Visibilidade 10 km ou mais

METAR: YBAS 231600Z AUTO 06006KT 9999 // NCD 14/M05 Q1022 RF00.0/000.0 PRESENT WEATHER SENSOR US

Hora: 02:17 (16:47 UTC)

Previsão

O boletim foi feito há 5 horas e 43 minutos, às 11:04 UTC
Previsão válida de 23 às 12 UTC a 24 às 12 UTC
Vento 5 kt de es-sudeste
Visibilidade 10 km ou mais
sem nuvens abaixo de 1500 metros e sem cumulonimbus
A partir de 23 às 2300 UTC
Vento 14 kt de este
Visibilidade 10 km ou mais
sem nuvens abaixo de 1500 metros e sem cumulonimbus
A partir de 24 às 1000 UTC
Vento 8 kt de es-sudeste
Visibilidade 10 km ou mais
sem nuvens abaixo de 1500 metros e sem cumulonimbus

TAF: YBAS 231104Z 2312/2412 12005KT CAVOK FM232300 10014KT CAVOK FM241000 12008KT CAVOK

Observações e previsões do tempo de mais de 4000 aeroportos (mensagens METAR e TAF).

As estações disponíveis são os pontos amarelos e vermelhos sobre o mapa.

Mova o rato sobre o mapa para ver o nome da estação.

Depois clique no ponto para visualizar as observações e previsões meteorológicas.

Para alterar o mapa : clique nos botões verdes com uma cruz preta para aumentar o zoom; no botão verde com uma pitada de zoom; ou nas setas verdes para mapas adjacentes.


METAR-TAF: